createdAt,value
2018-09-21T00:02:08.720Z,10.60
2018-09-21T00:04:35.783Z,11.70
2018-09-21T00:07:03.186Z,13.27
2018-09-21T00:09:30.261Z,13.43
2018-09-21T00:11:57.280Z,13.53
2018-09-21T00:14:24.596Z,15.47
2018-09-21T00:16:51.589Z,13.13
2018-09-21T00:19:18.617Z,12.50
2018-09-21T00:21:45.634Z,12.47
2018-09-21T00:24:12.685Z,12.10
2018-09-21T00:26:39.769Z,12.60
2018-09-21T00:29:06.977Z,13.13
2018-09-21T00:31:34.001Z,12.03
2018-09-21T00:34:01.082Z,12.57
2018-09-21T00:36:28.288Z,12.23
2018-09-21T00:38:55.325Z,13.83
2018-09-21T00:41:22.308Z,12.20
2018-09-21T00:43:49.663Z,12.10
2018-09-21T00:46:16.703Z,11.53
2018-09-21T00:48:43.746Z,12.20
2018-09-21T00:51:10.729Z,12.60
2018-09-21T00:53:37.701Z,13.20
2018-09-21T00:56:04.654Z,11.43
2018-09-21T00:58:31.917Z,11.40
2018-09-21T01:00:58.913Z,11.17
2018-09-21T01:03:26.248Z,11.70
2018-09-21T01:05:54.078Z,12.40
2018-09-21T01:08:21.082Z,11.93
2018-09-21T01:10:48.042Z,11.23
2018-09-21T01:13:15.324Z,12.30
2018-09-21T01:15:42.362Z,11.93
2018-09-21T01:18:09.305Z,13.23
2018-09-21T01:20:36.504Z,12.13
2018-09-21T01:23:03.564Z,12.50
2018-09-21T01:25:30.687Z,12.67
2018-09-21T01:27:58.034Z,12.00
2018-09-21T01:30:25.021Z,12.07
2018-09-21T01:32:52.054Z,11.73
2018-09-21T01:35:19.387Z,12.10
2018-09-21T01:37:46.349Z,12.40
2018-09-21T01:40:13.430Z,12.30
2018-09-21T01:42:40.755Z,11.83
2018-09-21T01:45:07.739Z,12.03
2018-09-21T01:47:34.755Z,12.23
2018-09-21T01:50:02.221Z,11.53
2018-09-21T01:52:29.243Z,12.27
2018-09-21T01:54:56.230Z,12.60
2018-09-21T01:57:23.498Z,12.10
2018-09-21T01:59:50.525Z,12.37
2018-09-21T02:02:17.588Z,11.67
2018-09-21T02:04:44.953Z,12.63
2018-09-21T02:07:12.098Z,12.60
2018-09-21T02:09:39.483Z,12.13
2018-09-21T02:12:06.772Z,12.07
2018-09-21T02:14:34.120Z,12.30
2018-09-21T02:17:01.214Z,12.00
2018-09-21T02:19:28.590Z,11.97
2018-09-21T02:21:55.714Z,11.87
2018-09-21T02:24:22.791Z,12.40
2018-09-21T02:26:50.682Z,12.50
2018-09-21T02:29:17.721Z,12.03
2018-09-21T02:31:45.141Z,12.77
2018-09-21T02:34:12.201Z,13.10
2018-09-21T02:36:39.268Z,12.33
2018-09-21T02:39:06.335Z,12.37
2018-09-21T02:41:33.809Z,12.70
2018-09-21T02:44:00.778Z,12.13
2018-09-21T02:46:27.923Z,12.67
2018-09-21T02:48:55.344Z,12.53
2018-09-21T02:51:22.442Z,12.30
2018-09-21T02:53:49.506Z,12.97
2018-09-21T02:56:17.048Z,12.57
2018-09-21T02:58:44.174Z,12.60
2018-09-21T03:01:11.262Z,13.23
2018-09-21T03:03:38.757Z,13.70
2018-09-21T03:06:05.842Z,12.87
2018-09-21T03:08:32.887Z,13.00
2018-09-21T03:11:00.255Z,13.27
2018-09-21T03:13:27.342Z,12.83
2018-09-21T03:15:54.418Z,13.80
2018-09-21T03:18:21.822Z,13.60
2018-09-21T03:20:48.974Z,13.00
2018-09-21T03:23:16.195Z,13.50
2018-09-21T03:25:43.689Z,13.67
2018-09-21T03:28:10.720Z,13.07
2018-09-21T03:30:37.789Z,12.83
2018-09-21T03:33:04.885Z,13.23
2018-09-21T03:35:32.008Z,13.00
2018-09-21T03:37:59.107Z,13.33
2018-09-21T03:40:27.437Z,13.30
2018-09-21T03:42:54.804Z,13.83
2018-09-21T03:45:21.836Z,13.87
2018-09-21T03:47:52.588Z,13.90
2018-09-21T03:50:19.735Z,13.60
2018-09-21T03:52:46.761Z,15.47
2018-09-21T03:55:14.098Z,13.90
2018-09-21T03:57:41.104Z,13.43
2018-09-21T04:00:08.506Z,13.73
2018-09-21T04:02:35.615Z,13.80
2018-09-21T04:05:02.629Z,13.10
2018-09-21T04:07:29.636Z,13.50
2018-09-21T04:09:57.027Z,13.70
2018-09-21T04:12:24.007Z,13.90
2018-09-21T04:14:51.023Z,15.40
2018-09-21T04:17:18.310Z,14.67
2018-09-21T04:19:45.365Z,14.27
2018-09-21T04:22:12.311Z,14.27
2018-09-21T04:24:39.593Z,14.27
2018-09-21T04:27:06.545Z,18.10
2018-09-21T04:29:33.545Z,14.53
2018-09-21T04:32:00.523Z,13.40
2018-09-21T04:34:27.512Z,14.50
2018-09-21T04:36:54.535Z,15.83
2018-09-21T04:39:21.874Z,14.47
2018-09-21T04:41:48.864Z,15.80
2018-09-21T04:44:15.943Z,14.60
2018-09-21T04:46:43.195Z,14.00
2018-09-21T04:49:10.145Z,13.90
2018-09-21T04:51:37.159Z,14.87
2018-09-21T04:54:04.180Z,15.43
2018-09-21T04:56:31.155Z,14.53
2018-09-21T04:58:58.142Z,14.57
2018-09-21T05:01:25.506Z,14.57
2018-09-21T05:03:52.677Z,14.53
2018-09-21T05:06:19.885Z,14.63
2018-09-21T05:08:47.271Z,14.03
2018-09-21T05:11:14.257Z,13.93
2018-09-21T05:13:41.424Z,13.93
2018-09-21T05:16:08.880Z,14.00
2018-09-21T05:18:35.869Z,14.30
2018-09-21T05:21:02.888Z,14.07
2018-09-21T05:23:30.373Z,14.07
2018-09-21T05:25:57.404Z,13.97
2018-09-21T05:28:24.415Z,13.73
2018-09-21T05:30:51.599Z,13.13
2018-09-21T05:33:18.623Z,13.20
2018-09-21T05:35:45.601Z,13.20
2018-09-21T05:38:12.865Z,13.00
2018-09-21T05:40:39.833Z,12.83
2018-09-21T05:43:06.772Z,12.30
2018-09-21T05:45:33.738Z,13.50
2018-09-21T05:48:00.711Z,11.70
2018-09-21T05:50:27.697Z,13.37
2018-09-21T05:52:55.013Z,12.77
2018-09-21T05:55:22.087Z,12.60
2018-09-21T05:57:49.097Z,12.00
2018-09-21T06:00:17.192Z,13.37
2018-09-21T06:02:44.774Z,13.50
2018-09-21T06:05:11.753Z,12.07
2018-09-21T06:07:39.189Z,11.33
2018-09-21T06:10:06.265Z,11.77
2018-09-21T06:12:33.395Z,11.23
2018-09-21T06:15:00.483Z,11.20
2018-09-21T06:17:27.557Z,11.40
2018-09-21T06:19:54.669Z,12.20
2018-09-21T06:22:22.122Z,11.10
2018-09-21T06:24:49.296Z,11.67
2018-09-21T06:27:16.345Z,12.90
2018-09-21T06:29:43.770Z,13.00
2018-09-21T06:32:10.856Z,12.40
2018-09-21T06:34:37.922Z,12.50
2018-09-21T06:37:05.381Z,12.70
2018-09-21T06:39:32.467Z,13.00
2018-09-21T06:41:59.541Z,12.50
2018-09-21T06:44:27.029Z,11.17
2018-09-21T06:46:54.122Z,12.27
2018-09-21T06:49:21.189Z,12.00
2018-09-21T06:51:48.593Z,12.00
2018-09-21T06:54:15.657Z,12.53
2018-09-21T06:56:42.729Z,14.70
2018-09-21T06:59:09.821Z,15.40
2018-09-21T07:01:36.913Z,15.90
2018-09-21T07:04:03.994Z,17.80
2018-09-21T07:06:31.065Z,12.60
2018-09-21T07:08:58.110Z,13.77
2018-09-21T07:11:25.179Z,15.60
2018-09-21T07:13:52.761Z,16.73
2018-09-21T07:16:19.956Z,12.40
2018-09-21T07:18:47.066Z,11.37
2018-09-21T07:21:14.158Z,11.87
2018-09-21T07:23:41.299Z,21.23
2018-09-21T07:26:08.373Z,12.90
2018-09-21T07:28:35.764Z,12.30
2018-09-21T07:31:02.910Z,12.63
2018-09-21T07:33:30.055Z,13.60
2018-09-21T07:35:57.273Z,9.73
2018-09-21T07:38:24.374Z,10.40
2018-09-21T07:40:51.498Z,10.60
2018-09-21T07:43:20.261Z,10.37
2018-09-21T07:45:47.372Z,10.20
2018-09-21T07:48:14.564Z,9.63
2018-09-21T07:50:42.067Z,10.43
2018-09-21T07:53:09.151Z,10.50
2018-09-21T07:55:36.873Z,12.30
2018-09-21T07:58:04.339Z,9.27
2018-09-21T08:00:31.519Z,9.50
2018-09-21T08:02:58.686Z,9.40
2018-09-21T08:05:27.106Z,8.40
2018-09-21T08:07:54.209Z,7.77
2018-09-21T08:10:21.267Z,7.23
2018-09-21T08:12:48.399Z,7.33
2018-09-21T08:15:15.457Z,6.97
2018-09-21T08:17:42.550Z,7.30
2018-09-21T08:20:10.024Z,7.33
2018-09-21T08:22:37.277Z,8.60
2018-09-21T08:25:04.478Z,7.67
2018-09-21T08:27:32.026Z,6.63
2018-09-21T08:29:59.132Z,6.57
2018-09-21T08:32:26.266Z,7.40
2018-09-21T08:34:53.373Z,6.50
2018-09-21T08:37:20.634Z,6.33
2018-09-21T08:39:47.660Z,7.23
2018-09-21T08:42:15.220Z,6.70
2018-09-21T08:44:42.262Z,9.60
2018-09-21T08:47:09.354Z,6.80
2018-09-21T08:49:36.913Z,6.20
2018-09-21T08:52:04.057Z,6.40
2018-09-21T08:54:31.203Z,7.37
2018-09-21T08:56:58.608Z,7.17
2018-09-21T08:59:25.641Z,6.50
2018-09-21T09:01:52.748Z,6.33
2018-09-21T09:04:20.191Z,6.27
2018-09-21T09:06:47.366Z,6.30
2018-09-21T09:09:14.467Z,5.90
2018-09-21T09:11:41.702Z,6.30
2018-09-21T09:14:08.854Z,5.90
2018-09-21T09:16:35.989Z,6.03
2018-09-21T09:19:03.076Z,7.20
2018-09-21T09:21:30.343Z,6.20
2018-09-21T09:23:57.373Z,6.27
2018-09-21T09:26:24.550Z,6.60
2018-09-21T09:28:51.592Z,6.10
2018-09-21T09:31:18.813Z,5.73
2018-09-21T09:33:46.374Z,5.97
2018-09-21T09:36:13.530Z,6.33
2018-09-21T09:38:40.690Z,7.37
2018-09-21T09:41:08.123Z,7.13
2018-09-21T09:43:35.217Z,5.70
2018-09-21T09:46:02.307Z,6.03
2018-09-21T09:48:29.791Z,6.13
2018-09-21T09:50:56.980Z,6.03
2018-09-21T09:53:24.174Z,6.00
2018-09-21T09:55:51.234Z,6.10
2018-09-21T09:58:18.303Z,5.63
2018-09-21T10:00:52.537Z,5.90
2018-09-21T10:03:20.208Z,7.20
2018-09-21T10:05:47.267Z,6.43
2018-09-21T10:08:14.701Z,6.63
2018-09-21T10:10:41.794Z,5.87
2018-09-21T10:13:09.324Z,6.17
2018-09-21T10:15:36.455Z,7.53
2018-09-21T10:18:03.850Z,7.07
2018-09-21T10:20:31.086Z,5.90
2018-09-21T10:22:58.674Z,5.50
2018-09-21T10:25:25.783Z,7.13
2018-09-21T10:27:53.105Z,5.73
2018-09-21T10:30:20.345Z,6.37
2018-09-21T10:32:47.388Z,5.43
2018-09-21T10:35:14.475Z,6.00
2018-09-21T10:37:41.576Z,5.50
2018-09-21T10:40:08.633Z,6.33
2018-09-21T10:42:35.761Z,5.50
2018-09-21T10:45:02.788Z,6.43
2018-09-21T10:47:29.855Z,5.67
2018-09-21T10:49:56.922Z,5.60
2018-09-21T10:52:24.046Z,5.30
2018-09-21T10:54:51.088Z,5.37
2018-09-21T10:57:18.172Z,5.40
2018-09-21T10:59:45.822Z,5.57
2018-09-21T11:02:12.865Z,7.20
2018-09-21T11:04:39.966Z,5.80
2018-09-21T11:07:07.055Z,6.27
2018-09-21T11:09:34.124Z,6.60
2018-09-21T11:12:01.240Z,6.00
2018-09-21T11:14:28.576Z,6.03
2018-09-21T11:16:55.698Z,5.73
2018-09-21T11:19:22.766Z,6.07
2018-09-21T11:21:50.181Z,5.43
2018-09-21T11:24:17.281Z,5.60
2018-09-21T11:26:44.378Z,5.30
2018-09-21T11:29:11.806Z,5.30
2018-09-21T11:31:38.872Z,5.40
2018-09-21T11:34:05.957Z,6.40
2018-09-21T11:36:33.376Z,5.87
2018-09-21T11:39:00.503Z,5.97
2018-09-21T11:41:27.568Z,5.50
2018-09-21T11:43:54.644Z,5.90
2018-09-21T11:46:22.890Z,5.13
2018-09-21T11:48:50.038Z,5.30
2018-09-21T11:51:17.486Z,5.70
2018-09-21T11:53:44.653Z,5.20
2018-09-21T11:56:11.897Z,5.90
2018-09-21T11:58:39.099Z,5.00
2018-09-21T12:01:07.750Z,6.43
2018-09-21T12:03:35.206Z,6.20
2018-09-21T12:06:05.138Z,5.50
2018-09-21T12:08:32.234Z,5.30
2018-09-21T12:10:59.323Z,5.30
2018-09-21T12:13:26.438Z,5.27
2018-09-21T12:15:53.552Z,5.37
2018-09-21T12:18:20.639Z,5.60
2018-09-21T12:20:47.986Z,5.93
2018-09-21T12:23:15.170Z,6.07
2018-09-21T12:25:42.372Z,6.50
2018-09-21T12:28:09.850Z,5.90
2018-09-21T12:30:37.094Z,5.77
2018-09-21T12:33:04.318Z,6.47
2018-09-21T12:35:31.467Z,6.83
2018-09-21T12:37:58.521Z,6.37
2018-09-21T12:40:25.681Z,5.80
2018-09-21T12:42:53.194Z,5.87
2018-09-21T12:45:20.274Z,5.33
2018-09-21T12:47:47.321Z,5.83
2018-09-21T12:50:14.734Z,6.00
2018-09-21T12:52:41.792Z,6.37
2018-09-21T12:55:08.901Z,6.07
2018-09-21T12:57:36.301Z,6.43
2018-09-21T13:00:04.061Z,6.37
2018-09-21T13:02:31.160Z,6.40
2018-09-21T13:04:58.521Z,6.00
2018-09-21T13:07:25.688Z,6.30
2018-09-21T13:09:52.831Z,6.50
2018-09-21T13:12:20.195Z,6.10
2018-09-21T13:14:47.310Z,6.10
2018-09-21T13:17:14.380Z,6.67
2018-09-21T13:19:41.766Z,6.77
2018-09-21T13:22:08.869Z,6.20
2018-09-21T13:24:35.900Z,6.00
2018-09-21T13:27:03.473Z,6.47
2018-09-21T13:29:30.559Z,6.83
2018-09-21T13:31:57.612Z,6.60
2018-09-21T13:34:24.763Z,6.53
2018-09-21T13:36:51.821Z,6.37
2018-09-21T13:39:18.971Z,6.90
2018-09-21T13:41:46.405Z,6.77
2018-09-21T13:44:13.472Z,6.97
2018-09-21T13:46:40.524Z,6.60
2018-09-21T13:49:07.957Z,8.07
2018-09-21T13:51:34.993Z,7.00
2018-09-21T13:54:02.132Z,6.37
2018-09-21T13:56:29.224Z,7.03
2018-09-21T13:58:56.544Z,7.30
2018-09-21T14:01:23.646Z,7.00
2018-09-21T14:03:51.028Z,6.53
2018-09-21T14:06:18.186Z,7.07
2018-09-21T14:08:45.240Z,6.30
2018-09-21T14:11:12.684Z,6.70
2018-09-21T14:13:39.785Z,7.90
2018-09-21T14:16:06.838Z,7.67
2018-09-21T14:18:34.246Z,6.80
2018-09-21T14:21:01.573Z,6.63
2018-09-21T14:23:28.650Z,7.10
2018-09-21T14:25:55.832Z,6.40
2018-09-21T14:28:22.914Z,7.10
2018-09-21T14:30:50.000Z,6.80
2018-09-21T14:33:17.379Z,7.23
2018-09-21T14:35:44.535Z,7.07
2018-09-21T14:38:11.658Z,6.60
2018-09-21T14:40:38.947Z,7.00
2018-09-21T14:43:06.084Z,6.20
2018-09-21T14:45:33.127Z,6.67
2018-09-21T14:48:00.677Z,8.73
2018-09-21T14:50:27.734Z,7.53
2018-09-21T14:52:54.739Z,5.83
2018-09-21T14:55:22.102Z,5.53
2018-09-21T14:57:49.135Z,4.27
2018-09-21T15:00:16.142Z,4.37
2018-09-21T15:02:43.261Z,3.17
2018-09-21T15:05:10.442Z,3.53
2018-09-21T15:07:37.576Z,2.90
2018-09-21T15:10:05.030Z,2.40
2018-09-21T15:12:32.304Z,1.90
2018-09-21T15:14:59.372Z,2.40
2018-09-21T15:17:26.400Z,1.37
2018-09-21T15:19:53.440Z,2.30
2018-09-21T15:22:20.608Z,2.00
2018-09-21T15:24:47.921Z,2.00
2018-09-21T15:27:15.286Z,1.40
2018-09-21T15:29:42.344Z,1.70
2018-09-21T15:32:09.827Z,2.43
2018-09-21T15:34:36.924Z,2.73
2018-09-21T15:37:03.956Z,2.50
2018-09-21T15:39:31.014Z,2.60
2018-09-21T15:41:58.041Z,2.40
2018-09-21T15:44:25.063Z,2.50
2018-09-21T15:46:52.043Z,1.80
2018-09-21T15:49:19.002Z,1.83
2018-09-21T15:51:46.133Z,2.20
2018-09-21T15:54:13.421Z,2.50
2018-09-21T15:56:40.475Z,2.20
2018-09-21T15:59:07.490Z,2.63
2018-09-21T16:01:34.913Z,2.30
2018-09-21T16:04:01.896Z,2.40
2018-09-21T16:06:31.707Z,2.30
2018-09-21T16:08:59.247Z,2.20
2018-09-21T16:11:26.349Z,2.10
2018-09-21T16:13:53.469Z,2.03
2018-09-21T16:16:20.797Z,2.27
2018-09-21T16:18:47.886Z,2.13
2018-09-21T16:21:15.024Z,2.90
2018-09-21T16:23:42.117Z,2.73
2018-09-21T16:26:09.242Z,2.37
2018-09-21T16:28:36.341Z,2.10
2018-09-21T16:31:03.717Z,2.20
2018-09-21T16:33:31.933Z,2.23
2018-09-21T16:35:59.048Z,2.13
2018-09-21T16:38:26.475Z,2.80
2018-09-21T16:40:53.661Z,2.07
2018-09-21T16:43:20.796Z,1.90
2018-09-21T16:45:47.989Z,2.10
2018-09-21T16:48:15.076Z,2.53
2018-09-21T16:50:42.361Z,2.20
2018-09-21T16:53:09.897Z,6.20
2018-09-21T16:55:37.032Z,2.83
2018-09-21T16:58:04.428Z,2.87
2018-09-21T17:00:31.641Z,2.10
2018-09-21T17:02:59.754Z,2.53
2018-09-21T17:05:26.942Z,2.40
2018-09-21T17:07:54.338Z,2.40
2018-09-21T17:10:21.705Z,2.20
2018-09-21T17:12:48.951Z,2.47
2018-09-21T17:15:16.186Z,2.60
2018-09-21T17:17:43.361Z,3.17
2018-09-21T17:20:10.516Z,3.27
2018-09-21T17:22:38.034Z,2.97
2018-09-21T17:25:05.549Z,3.03
2018-09-21T17:27:32.848Z,3.00
2018-09-21T17:30:00.025Z,3.53
2018-09-21T17:32:27.204Z,2.50
2018-09-21T17:34:54.403Z,3.30
2018-09-21T17:37:21.905Z,3.97
2018-09-21T17:39:49.047Z,3.80
2018-09-21T17:42:16.120Z,4.67
2018-09-21T17:44:43.627Z,5.23
2018-09-21T17:47:10.846Z,8.57
2018-09-21T17:49:37.890Z,6.73
2018-09-21T17:52:04.959Z,6.63
2018-09-21T17:54:32.092Z,4.30
2018-09-21T17:56:59.219Z,15.23
2018-09-21T17:59:26.667Z,5.00
2018-09-21T18:01:53.773Z,4.27
2018-09-21T18:04:20.969Z,6.73
2018-09-21T18:06:48.388Z,5.77
2018-09-21T18:09:15.570Z,6.97
2018-09-21T18:11:42.875Z,8.20
2018-09-21T18:14:11.047Z,5.50
2018-09-21T18:16:38.205Z,5.00
2018-09-21T18:19:05.403Z,5.27
2018-09-21T18:21:32.680Z,4.47
2018-09-21T18:23:59.737Z,6.20
2018-09-21T18:26:26.785Z,7.27
2018-09-21T18:28:54.160Z,4.90
2018-09-21T18:31:21.289Z,6.40
2018-09-21T18:33:48.380Z,6.70
2018-09-21T18:36:15.588Z,5.63
2018-09-21T18:38:42.721Z,5.00
2018-09-21T18:41:09.747Z,6.67
2018-09-21T18:43:37.250Z,5.37
2018-09-21T18:46:04.325Z,4.77
2018-09-21T18:48:31.348Z,4.50
2018-09-21T18:50:58.810Z,4.87
2018-09-21T18:53:26.006Z,6.30
2018-09-21T18:55:53.099Z,4.63
2018-09-21T18:58:20.220Z,4.33
2018-09-21T19:00:47.343Z,4.33
2018-09-21T19:03:14.526Z,5.20
2018-09-21T19:05:41.955Z,4.67
2018-09-21T19:08:09.057Z,4.70
2018-09-21T19:10:36.269Z,6.50
2018-09-21T19:13:03.718Z,4.57
2018-09-21T19:15:30.836Z,6.50
2018-09-21T19:17:58.109Z,4.97
2018-09-21T19:20:25.253Z,5.70
2018-09-21T19:22:52.397Z,5.50
2018-09-21T19:25:19.477Z,5.20
2018-09-21T19:27:46.975Z,4.90
2018-09-21T19:30:14.276Z,5.70
2018-09-21T19:32:41.389Z,4.77
2018-09-21T19:35:08.765Z,4.50
2018-09-21T19:37:35.930Z,6.23
2018-09-21T19:40:03.061Z,5.83
2018-09-21T19:42:33.270Z,4.40
2018-09-21T19:45:00.490Z,4.80
2018-09-21T19:47:27.545Z,5.30
2018-09-21T19:49:54.713Z,5.60
2018-09-21T19:52:21.978Z,7.07
2018-09-21T19:54:49.144Z,5.83
2018-09-21T19:57:16.549Z,7.70
2018-09-21T19:59:43.617Z,4.73
2018-09-21T20:02:10.849Z,5.27
2018-09-21T20:04:38.020Z,6.00
2018-09-21T20:07:05.214Z,5.77
2018-09-21T20:09:32.335Z,5.73
2018-09-21T20:11:59.825Z,5.53
2018-09-21T20:14:26.870Z,6.30
2018-09-21T20:19:28.066Z,5.90
2018-09-21T20:21:55.235Z,6.50
2018-09-21T20:24:22.390Z,4.00
2018-09-21T20:26:49.958Z,5.20
2018-09-21T20:29:17.075Z,6.97
2018-09-21T20:31:50.445Z,7.10
2018-09-21T20:34:17.521Z,6.53
2018-09-21T20:36:44.607Z,5.93
2018-09-21T20:39:12.275Z,7.67
2018-09-21T20:41:39.550Z,9.47
2018-09-21T20:44:06.723Z,9.10
2018-09-21T20:46:33.812Z,8.53
2018-09-21T20:49:01.035Z,8.73
2018-09-21T20:51:28.178Z,10.73
2018-09-21T20:53:55.594Z,9.60
2018-09-21T20:56:22.780Z,7.10
2018-09-21T20:58:49.940Z,5.40
2018-09-21T21:01:17.464Z,9.80
2018-09-21T21:03:44.614Z,6.83
2018-09-21T21:06:11.816Z,8.13
2018-09-21T21:08:39.684Z,7.13
2018-09-21T21:11:08.116Z,6.53
2018-09-21T21:13:35.276Z,6.97
2018-09-21T21:16:02.670Z,4.00
2018-09-21T21:18:29.755Z,4.37
2018-09-21T21:20:57.061Z,8.47
2018-09-21T21:23:24.865Z,4.80
2018-09-21T21:25:52.121Z,4.43
2018-09-21T21:28:19.281Z,4.30
2018-09-21T21:30:46.371Z,3.67
2018-09-21T21:33:13.632Z,5.23
2018-09-21T21:35:40.664Z,4.23
2018-09-21T21:38:07.760Z,4.00
2018-09-21T21:40:34.827Z,4.03
2018-09-21T21:43:02.018Z,4.70
2018-09-21T21:45:29.445Z,6.10
2018-09-21T21:47:56.538Z,3.97
2018-09-21T21:50:23.676Z,5.00
2018-09-21T21:52:50.883Z,4.50
2018-09-21T21:55:17.984Z,3.10
2018-09-21T21:57:45.088Z,3.90
2018-09-21T22:00:12.566Z,3.70
2018-09-21T22:02:39.704Z,4.70
2018-09-21T22:05:06.886Z,3.80
2018-09-21T22:07:36.481Z,4.30
2018-09-21T22:10:04.677Z,2.60
2018-09-21T22:12:37.581Z,2.90
2018-09-21T22:15:09.586Z,3.93
2018-09-21T22:17:36.644Z,2.70
2018-09-21T22:20:04.139Z,5.00
2018-09-21T22:22:31.358Z,3.23
2018-09-21T22:24:58.510Z,3.80
2018-09-21T22:27:26.028Z,4.00
2018-09-21T22:29:53.179Z,3.37
2018-09-21T22:32:20.300Z,6.00
2018-09-21T22:34:47.754Z,4.43
2018-09-21T22:37:14.934Z,2.90
2018-09-21T22:39:42.114Z,2.90
2018-09-21T22:42:09.610Z,4.27
2018-09-21T22:44:36.665Z,11.37
2018-09-21T22:47:03.776Z,3.80
2018-09-21T22:49:31.063Z,3.10
2018-09-21T22:51:58.129Z,3.30
2018-09-21T22:54:25.134Z,4.80
2018-09-21T22:56:52.158Z,6.43
2018-09-21T22:59:19.107Z,3.37
2018-09-21T23:01:46.085Z,3.07
2018-09-21T23:04:13.336Z,2.27
2018-09-21T23:06:40.402Z,3.80
2018-09-21T23:09:08.208Z,5.67
2018-09-21T23:11:35.661Z,3.30
2018-09-21T23:14:02.701Z,4.43
2018-09-21T23:16:29.798Z,3.80
2018-09-21T23:18:56.873Z,2.33
2018-09-21T23:21:23.949Z,3.47
2018-09-21T23:23:51.052Z,3.93
2018-09-21T23:26:18.495Z,3.00
2018-09-21T23:28:45.557Z,2.67
2018-09-21T23:31:12.620Z,2.10
2018-09-21T23:33:39.741Z,2.17
2018-09-21T23:36:06.820Z,2.23
2018-09-21T23:38:33.926Z,2.60
2018-09-21T23:41:01.024Z,2.00
2018-09-21T23:43:28.130Z,2.50
2018-09-21T23:45:55.209Z,3.03
2018-09-21T23:48:22.341Z,2.67
2018-09-21T23:50:49.410Z,2.70
2018-09-21T23:53:16.482Z,2.63
2018-09-21T23:55:43.581Z,2.30
2018-09-21T23:58:10.640Z,3.40
